sensor_id;sensor_type;location;lat;lon;timestamp;temperature;humidity
15535;DHT22;7869;49.264;8.596;2022-11-15T00:01:09;8.60;99.90
15535;DHT22;7869;49.264;8.596;2022-11-15T00:03:35;8.50;99.90
15535;DHT22;7869;49.264;8.596;2022-11-15T00:06:04;8.50;99.90
15535;DHT22;7869;49.264;8.596;2022-11-15T00:08:31;8.60;99.90
15535;DHT22;7869;49.264;8.596;2022-11-15T00:10:57;8.60;99.90
15535;DHT22;7869;49.264;8.596;2022-11-15T00:13:23;8.60;99.90
15535;DHT22;7869;49.264;8.596;2022-11-15T00:15:49;8.70;99.90
15535;DHT22;7869;49.264;8.596;2022-11-15T00:18:15;8.70;99.90
15535;DHT22;7869;49.264;8.596;2022-11-15T00:20:41;8.70;99.90
15535;DHT22;7869;49.264;8.596;2022-11-15T00:23:07;8.70;99.90
15535;DHT22;7869;49.264;8.596;2022-11-15T00:25:33;8.70;99.90
15535;DHT22;7869;49.264;8.596;2022-11-15T00:27:59;8.70;99.90
15535;DHT22;7869;49.264;8.596;2022-11-15T00:30:26;8.70;99.90
15535;DHT22;7869;49.264;8.596;2022-11-15T00:32:52;8.70;99.90
15535;DHT22;7869;49.264;8.596;2022-11-15T00:35:18;8.70;99.90
15535;DHT22;7869;49.264;8.596;2022-11-15T00:37:44;8.70;99.90
15535;DHT22;7869;49.264;8.596;2022-11-15T00:40:10;8.70;99.90
15535;DHT22;7869;49.264;8.596;2022-11-15T00:42:38;8.70;99.90
15535;DHT22;7869;49.264;8.596;2022-11-15T00:45:03;8.70;99.90
15535;DHT22;7869;49.264;8.596;2022-11-15T00:47:29;8.80;99.90
15535;DHT22;7869;49.264;8.596;2022-11-15T00:49:54;8.80;99.90
15535;DHT22;7869;49.264;8.596;2022-11-15T00:52:20;8.70;99.90
15535;DHT22;7869;49.264;8.596;2022-11-15T00:54:46;8.70;99.90
15535;DHT22;7869;49.264;8.596;2022-11-15T00:57:11;8.70;99.90
15535;DHT22;7869;49.264;8.596;2022-11-15T00:59:37;8.70;99.90
15535;DHT22;7869;49.264;8.596;2022-11-15T01:02:02;8.60;99.90
15535;DHT22;7869;49.264;8.596;2022-11-15T01:04:28;8.70;99.90
15535;DHT22;7869;49.264;8.596;2022-11-15T01:06:54;8.60;99.90
15535;DHT22;7869;49.264;8.596;2022-11-15T01:09:19;8.60;99.90
15535;DHT22;7869;49.264;8.596;2022-11-15T01:11:45;8.70;99.90
15535;DHT22;7869;49.264;8.596;2022-11-15T01:14:10;8.60;99.90
15535;DHT22;7869;49.264;8.596;2022-11-15T01:16:36;8.60;99.90
15535;DHT22;7869;49.264;8.596;2022-11-15T01:19:02;8.60;99.90
15535;DHT22;7869;49.264;8.596;2022-11-15T01:21:28;8.50;99.90
15535;DHT22;7869;49.264;8.596;2022-11-15T01:23:56;8.50;99.90
15535;DHT22;7869;49.264;8.596;2022-11-15T01:26:23;8.40;99.90
15535;DHT22;7869;49.264;8.596;2022-11-15T01:28:49;8.40;99.90
15535;DHT22;7869;49.264;8.596;2022-11-15T01:31:18;8.30;99.90
15535;DHT22;7869;49.264;8.596;2022-11-15T01:33:44;8.30;99.90
15535;DHT22;7869;49.264;8.596;2022-11-15T01:36:19;8.20;99.90
15535;DHT22;7869;49.264;8.596;2022-11-15T01:38:54;8.20;99.90
15535;DHT22;7869;49.264;8.596;2022-11-15T01:41:23;8.20;99.90
15535;DHT22;7869;49.264;8.596;2022-11-15T01:43:52;8.10;99.90
15535;DHT22;7869;49.264;8.596;2022-11-15T01:46:30;8.10;99.90
15535;DHT22;7869;49.264;8.596;2022-11-15T01:49:02;8.00;99.90
15535;DHT22;7869;49.264;8.596;2022-11-15T01:51:31;8.00;99.90
15535;DHT22;7869;49.264;8.596;2022-11-15T01:54:02;8.00;99.90
15535;DHT22;7869;49.264;8.596;2022-11-15T01:56:33;8.00;99.90
15535;DHT22;7869;49.264;8.596;2022-11-15T01:59:03;8.00;99.90
15535;DHT22;7869;49.264;8.596;2022-11-15T02:01:30;8.00;99.90
15535;DHT22;7869;49.264;8.596;2022-11-15T02:04:07;8.00;99.90
15535;DHT22;7869;49.264;8.596;2022-11-15T02:06:35;8.00;99.90
15535;DHT22;7869;49.264;8.596;2022-11-15T02:09:02;8.00;99.90
15535;DHT22;7869;49.264;8.596;2022-11-15T02:11:28;8.00;99.90
15535;DHT22;7869;49.264;8.596;2022-11-15T02:13:54;8.00;99.90
15535;DHT22;7869;49.264;8.596;2022-11-15T02:20:04;8.10;99.90
15535;DHT22;7869;49.264;8.596;2022-11-15T02:36:49;8.10;99.90
15535;DHT22;7869;49.264;8.596;2022-11-15T02:39:35;8.10;99.90
15535;DHT22;7869;49.264;8.596;2022-11-15T02:42:08;8.10;99.90
15535;DHT22;7869;49.264;8.596;2022-11-15T02:44:56;8.10;99.90
15535;DHT22;7869;49.264;8.596;2022-11-15T02:47:24;8.10;99.90
15535;DHT22;7869;49.264;8.596;2022-11-15T02:49:54;8.10;99.90
15535;DHT22;7869;49.264;8.596;2022-11-15T02:52:24;8.10;99.90
15535;DHT22;7869;49.264;8.596;2022-11-15T02:54:54;8.10;99.90
15535;DHT22;7869;49.264;8.596;2022-11-15T03:02:42;8.10;99.90
15535;DHT22;7869;49.264;8.596;2022-11-15T03:08:36;8.10;99.90
15535;DHT22;7869;49.264;8.596;2022-11-15T03:11:16;8.10;99.90
15535;DHT22;7869;49.264;8.596;2022-11-15T03:16:37;8.10;99.90
15535;DHT22;7869;49.264;8.596;2022-11-15T03:19:13;8.10;99.90
15535;DHT22;7869;49.264;8.596;2022-11-15T03:21:40;8.10;99.90
15535;DHT22;7869;49.264;8.596;2022-11-15T03:24:07;8.10;99.90
15535;DHT22;7869;49.264;8.596;2022-11-15T03:26:36;8.10;99.90
15535;DHT22;7869;49.264;8.596;2022-11-15T03:29:19;8.10;99.90
15535;DHT22;7869;49.264;8.596;2022-11-15T03:31:52;8.10;99.90
15535;DHT22;7869;49.264;8.596;2022-11-15T03:34:47;8.20;99.90
15535;DHT22;7869;49.264;8.596;2022-11-15T03:37:15;8.20;99.90
15535;DHT22;7869;49.264;8.596;2022-11-15T03:39:42;8.20;99.90
15535;DHT22;7869;49.264;8.596;2022-11-15T03:43:08;8.30;99.90
15535;DHT22;7869;49.264;8.596;2022-11-15T03:45:28;8.40;99.90
15535;DHT22;7869;49.264;8.596;2022-11-15T03:48:19;8.40;99.90
15535;DHT22;7869;49.264;8.596;2022-11-15T03:50:45;8.40;99.90
15535;DHT22;7869;49.264;8.596;2022-11-15T03:53:12;8.50;99.90
15535;DHT22;7869;49.264;8.596;2022-11-15T03:55:38;8.50;99.90
15535;DHT22;7869;49.264;8.596;2022-11-15T03:58:04;8.50;99.90
15535;DHT22;7869;49.264;8.596;2022-11-15T04:00:30;8.60;99.90
15535;DHT22;7869;49.264;8.596;2022-11-15T04:02:55;8.60;99.90
15535;DHT22;7869;49.264;8.596;2022-11-15T04:05:21;8.60;99.90
15535;DHT22;7869;49.264;8.596;2022-11-15T04:07:47;8.60;99.90
15535;DHT22;7869;49.264;8.596;2022-11-15T04:10:12;8.70;99.90
15535;DHT22;7869;49.264;8.596;2022-11-15T04:12:40;8.70;99.90
15535;DHT22;7869;49.264;8.596;2022-11-15T04:15:10;8.70;99.90
15535;DHT22;7869;49.264;8.596;2022-11-15T04:17:50;8.80;99.90
15535;DHT22;7869;49.264;8.596;2022-11-15T04:20:18;8.80;99.90
15535;DHT22;7869;49.264;8.596;2022-11-15T04:23:06;8.80;99.90
15535;DHT22;7869;49.264;8.596;2022-11-15T04:25:52;8.80;99.90
15535;DHT22;7869;49.264;8.596;2022-11-15T04:28:18;8.80;99.90
15535;DHT22;7869;49.264;8.596;2022-11-15T04:30:44;8.80;99.90
15535;DHT22;7869;49.264;8.596;2022-11-15T04:33:10;8.80;99.90
15535;DHT22;7869;49.264;8.596;2022-11-15T04:35:35;8.80;99.90
15535;DHT22;7869;49.264;8.596;2022-11-15T04:38:03;8.90;99.90
15535;DHT22;7869;49.264;8.596;2022-11-15T04:40:29;8.90;99.90
15535;DHT22;7869;49.264;8.596;2022-11-15T04:42:55;8.90;99.90
15535;DHT22;7869;49.264;8.596;2022-11-15T04:45:20;8.90;99.90
15535;DHT22;7869;49.264;8.596;2022-11-15T04:47:46;8.90;99.90
15535;DHT22;7869;49.264;8.596;2022-11-15T04:50:13;8.90;99.90
15535;DHT22;7869;49.264;8.596;2022-11-15T04:52:50;8.90;99.90
15535;DHT22;7869;49.264;8.596;2022-11-15T04:55:16;8.90;99.90
15535;DHT22;7869;49.264;8.596;2022-11-15T04:57:41;8.90;99.90
15535;DHT22;7869;49.264;8.596;2022-11-15T05:00:12;8.90;99.90
15535;DHT22;7869;49.264;8.596;2022-11-15T05:02:38;8.90;99.90
15535;DHT22;7869;49.264;8.596;2022-11-15T05:05:23;8.90;99.90
15535;DHT22;7869;49.264;8.596;2022-11-15T05:07:49;8.90;99.90
15535;DHT22;7869;49.264;8.596;2022-11-15T05:10:15;8.90;99.90
15535;DHT22;7869;49.264;8.596;2022-11-15T05:12:42;8.90;99.90
15535;DHT22;7869;49.264;8.596;2022-11-15T05:15:08;8.90;99.90
15535;DHT22;7869;49.264;8.596;2022-11-15T05:17:33;8.90;99.90
15535;DHT22;7869;49.264;8.596;2022-11-15T05:19:59;8.90;99.90
15535;DHT22;7869;49.264;8.596;2022-11-15T05:22:25;8.90;99.90
15535;DHT22;7869;49.264;8.596;2022-11-15T05:24:50;8.90;99.90
15535;DHT22;7869;49.264;8.596;2022-11-15T05:27:16;9.00;99.90
15535;DHT22;7869;49.264;8.596;2022-11-15T05:29:41;8.90;99.90
15535;DHT22;7869;49.264;8.596;2022-11-15T05:32:08;8.90;99.90
15535;DHT22;7869;49.264;8.596;2022-11-15T05:34:34;8.90;99.90
15535;DHT22;7869;49.264;8.596;2022-11-15T05:37:00;8.90;99.90
15535;DHT22;7869;49.264;8.596;2022-11-15T05:39:26;8.90;99.90
15535;DHT22;7869;49.264;8.596;2022-11-15T05:41:59;8.90;99.90
15535;DHT22;7869;49.264;8.596;2022-11-15T05:44:25;8.90;99.90
15535;DHT22;7869;49.264;8.596;2022-11-15T05:46:53;8.90;99.90
15535;DHT22;7869;49.264;8.596;2022-11-15T05:49:23;8.90;99.90
15535;DHT22;7869;49.264;8.596;2022-11-15T05:51:49;8.90;99.90
15535;DHT22;7869;49.264;8.596;2022-11-15T05:54:17;8.90;99.90
15535;DHT22;7869;49.264;8.596;2022-11-15T05:56:44;8.90;99.90
15535;DHT22;7869;49.264;8.596;2022-11-15T05:59:10;8.90;99.90
15535;DHT22;7869;49.264;8.596;2022-11-15T06:01:37;8.90;99.90
15535;DHT22;7869;49.264;8.596;2022-11-15T06:04:03;9.00;99.90
15535;DHT22;7869;49.264;8.596;2022-11-15T06:06:29;9.00;99.90
15535;DHT22;7869;49.264;8.596;2022-11-15T06:08:55;9.00;99.90
15535;DHT22;7869;49.264;8.596;2022-11-15T06:11:20;9.00;99.90
15535;DHT22;7869;49.264;8.596;2022-11-15T06:13:46;9.00;99.90
15535;DHT22;7869;49.264;8.596;2022-11-15T06:16:11;9.00;99.90
15535;DHT22;7869;49.264;8.596;2022-11-15T06:18:37;8.90;99.90
15535;DHT22;7869;49.264;8.596;2022-11-15T06:21:03;8.90;99.90
15535;DHT22;7869;49.264;8.596;2022-11-15T06:23:33;8.90;99.90
15535;DHT22;7869;49.264;8.596;2022-11-15T06:25:59;8.80;99.90
15535;DHT22;7869;49.264;8.596;2022-11-15T06:28:28;8.80;99.90
15535;DHT22;7869;49.264;8.596;2022-11-15T06:30:54;8.80;99.90
15535;DHT22;7869;49.264;8.596;2022-11-15T06:33:20;8.90;99.90
15535;DHT22;7869;49.264;8.596;2022-11-15T06:35:45;8.90;99.90
15535;DHT22;7869;49.264;8.596;2022-11-15T06:38:11;8.90;99.90
15535;DHT22;7869;49.264;8.596;2022-11-15T06:40:38;8.90;99.90
15535;DHT22;7869;49.264;8.596;2022-11-15T06:43:05;8.90;99.90
15535;DHT22;7869;49.264;8.596;2022-11-15T06:45:31;9.00;99.90
15535;DHT22;7869;49.264;8.596;2022-11-15T06:47:57;9.00;99.90
15535;DHT22;7869;49.264;8.596;2022-11-15T06:50:23;9.10;99.90
15535;DHT22;7869;49.264;8.596;2022-11-15T06:52:48;9.10;99.90
15535;DHT22;7869;49.264;8.596;2022-11-15T06:55:14;9.20;99.90
15535;DHT22;7869;49.264;8.596;2022-11-15T06:57:49;9.20;99.90
15535;DHT22;7869;49.264;8.596;2022-11-15T07:00:19;9.20;99.90
15535;DHT22;7869;49.264;8.596;2022-11-15T07:02:46;9.20;99.90
15535;DHT22;7869;49.264;8.596;2022-11-15T07:05:13;9.20;99.90
15535;DHT22;7869;49.264;8.596;2022-11-15T07:07:38;9.20;99.90
15535;DHT22;7869;49.264;8.596;2022-11-15T07:10:05;9.30;99.90
15535;DHT22;7869;49.264;8.596;2022-11-15T07:12:30;9.30;99.90
15535;DHT22;7869;49.264;8.596;2022-11-15T07:14:56;9.40;99.90
15535;DHT22;7869;49.264;8.596;2022-11-15T07:17:21;9.50;99.90
15535;DHT22;7869;49.264;8.596;2022-11-15T07:19:47;9.50;99.90
15535;DHT22;7869;49.264;8.596;2022-11-15T07:22:12;9.60;99.90
15535;DHT22;7869;49.264;8.596;2022-11-15T07:24:38;9.70;99.90
15535;DHT22;7869;49.264;8.596;2022-11-15T07:27:04;9.70;99.90
15535;DHT22;7869;49.264;8.596;2022-11-15T07:29:29;9.70;99.90
15535;DHT22;7869;49.264;8.596;2022-11-15T07:31:55;9.70;99.90
15535;DHT22;7869;49.264;8.596;2022-11-15T07:34:20;9.70;99.90
15535;DHT22;7869;49.264;8.596;2022-11-15T07:36:46;9.80;99.90
15535;DHT22;7869;49.264;8.596;2022-11-15T07:39:11;9.80;99.90
15535;DHT22;7869;49.264;8.596;2022-11-15T07:41:37;9.80;99.90
15535;DHT22;7869;49.264;8.596;2022-11-15T07:44:04;9.80;99.90
15535;DHT22;7869;49.264;8.596;2022-11-15T07:46:30;9.90;99.90
15535;DHT22;7869;49.264;8.596;2022-11-15T07:48:56;9.90;99.90
15535;DHT22;7869;49.264;8.596;2022-11-15T07:51:21;9.90;99.90
15535;DHT22;7869;49.264;8.596;2022-11-15T07:53:47;10.00;99.90
15535;DHT22;7869;49.264;8.596;2022-11-15T07:56:13;10.10;99.90
15535;DHT22;7869;49.264;8.596;2022-11-15T07:58:38;10.10;99.90
15535;DHT22;7869;49.264;8.596;2022-11-15T08:01:05;10.20;99.90
15535;DHT22;7869;49.264;8.596;2022-11-15T08:03:31;10.10;99.90
15535;DHT22;7869;49.264;8.596;2022-11-15T08:05:57;10.20;99.90
15535;DHT22;7869;49.264;8.596;2022-11-15T08:08:23;10.20;99.90
15535;DHT22;7869;49.264;8.596;2022-11-15T08:10:49;10.30;99.90
15535;DHT22;7869;49.264;8.596;2022-11-15T08:13:14;10.30;99.90
15535;DHT22;7869;49.264;8.596;2022-11-15T08:15:40;10.40;99.90
15535;DHT22;7869;49.264;8.596;2022-11-15T08:18:15;10.50;99.90
15535;DHT22;7869;49.264;8.596;2022-11-15T08:20:41;10.50;99.90
15535;DHT22;7869;49.264;8.596;2022-11-15T08:23:09;10.60;99.90
15535;DHT22;7869;49.264;8.596;2022-11-15T08:25:35;10.60;99.90
15535;DHT22;7869;49.264;8.596;2022-11-15T08:28:03;10.70;99.90
15535;DHT22;7869;49.264;8.596;2022-11-15T08:30:30;10.80;99.90
15535;DHT22;7869;49.264;8.596;2022-11-15T08:32:57;10.80;99.90
15535;DHT22;7869;49.264;8.596;2022-11-15T08:35:23;10.80;99.90
15535;DHT22;7869;49.264;8.596;2022-11-15T08:37:49;10.90;99.90
15535;DHT22;7869;49.264;8.596;2022-11-15T08:40:15;11.00;99.90
15535;DHT22;7869;49.264;8.596;2022-11-15T08:42:41;11.00;99.90
15535;DHT22;7869;49.264;8.596;2022-11-15T08:45:07;11.10;99.90
15535;DHT22;7869;49.264;8.596;2022-11-15T08:47:33;11.10;99.90
15535;DHT22;7869;49.264;8.596;2022-11-15T08:49:59;11.20;99.90
15535;DHT22;7869;49.264;8.596;2022-11-15T08:52:25;11.20;99.90
15535;DHT22;7869;49.264;8.596;2022-11-15T08:54:50;11.20;99.90
15535;DHT22;7869;49.264;8.596;2022-11-15T08:57:16;11.30;99.90
15535;DHT22;7869;49.264;8.596;2022-11-15T08:59:42;11.30;99.90
15535;DHT22;7869;49.264;8.596;2022-11-15T09:02:12;11.40;99.90
15535;DHT22;7869;49.264;8.596;2022-11-15T09:04:40;11.50;99.90
15535;DHT22;7869;49.264;8.596;2022-11-15T09:07:06;11.60;99.90
15535;DHT22;7869;49.264;8.596;2022-11-15T09:09:31;11.70;99.90
15535;DHT22;7869;49.264;8.596;2022-11-15T09:11:57;11.80;99.90
15535;DHT22;7869;49.264;8.596;2022-11-15T09:14:22;11.90;99.90
15535;DHT22;7869;49.264;8.596;2022-11-15T09:16:48;12.10;99.90
15535;DHT22;7869;49.264;8.596;2022-11-15T09:19:13;12.20;99.90
15535;DHT22;7869;49.264;8.596;2022-11-15T09:21:40;12.20;99.90
15535;DHT22;7869;49.264;8.596;2022-11-15T09:24:05;12.30;99.90
15535;DHT22;7869;49.264;8.596;2022-11-15T09:26:31;12.30;99.90
15535;DHT22;7869;49.264;8.596;2022-11-15T09:28:56;12.30;99.90
15535;DHT22;7869;49.264;8.596;2022-11-15T09:31:22;12.40;99.90
15535;DHT22;7869;49.264;8.596;2022-11-15T09:33:48;12.50;99.90
15535;DHT22;7869;49.264;8.596;2022-11-15T09:36:13;12.60;99.90
15535;DHT22;7869;49.264;8.596;2022-11-15T09:38:39;12.60;99.90
15535;DHT22;7869;49.264;8.596;2022-11-15T09:49:32;12.70;99.90
15535;DHT22;7869;49.264;8.596;2022-11-15T09:51:58;12.70;99.90
15535;DHT22;7869;49.264;8.596;2022-11-15T09:54:35;12.70;99.90
15535;DHT22;7869;49.264;8.596;2022-11-15T10:05:14;12.90;99.90
15535;DHT22;7869;49.264;8.596;2022-11-15T10:12:48;13.00;99.90
15535;DHT22;7869;49.264;8.596;2022-11-15T10:15:16;13.00;99.90
15535;DHT22;7869;49.264;8.596;2022-11-15T10:18:06;13.00;99.90
15535;DHT22;7869;49.264;8.596;2022-11-15T10:20:47;13.00;99.90
15535;DHT22;7869;49.264;8.596;2022-11-15T10:23:19;12.80;99.90
15535;DHT22;7869;49.264;8.596;2022-11-15T10:25:45;12.70;99.90
15535;DHT22;7869;49.264;8.596;2022-11-15T10:28:29;12.70;99.90
15535;DHT22;7869;49.264;8.596;2022-11-15T10:30:57;12.70;99.90
15535;DHT22;7869;49.264;8.596;2022-11-15T10:41:21;12.70;99.90
15535;DHT22;7869;49.264;8.596;2022-11-15T10:44:09;12.70;99.90
15535;DHT22;7869;49.264;8.596;2022-11-15T10:46:38;12.80;99.90
15535;DHT22;7869;49.264;8.596;2022-11-15T10:49:23;12.80;99.90
15535;DHT22;7869;49.264;8.596;2022-11-15T10:52:14;12.90;99.90
15535;DHT22;7869;49.264;8.596;2022-11-15T10:54:47;12.90;99.90
15535;DHT22;7869;49.264;8.596;2022-11-15T10:57:28;13.00;99.90
15535;DHT22;7869;49.264;8.596;2022-11-15T11:00:39;13.00;99.90
15535;DHT22;7869;49.264;8.596;2022-11-15T11:05:28;13.10;99.90
15535;DHT22;7869;49.264;8.596;2022-11-15T11:10:54;13.30;99.90
15535;DHT22;7869;49.264;8.596;2022-11-15T11:13:28;13.40;99.90
15535;DHT22;7869;49.264;8.596;2022-11-15T11:19:14;13.50;99.90
15535;DHT22;7869;49.264;8.596;2022-11-15T11:30:14;13.80;99.90
15535;DHT22;7869;49.264;8.596;2022-11-15T11:35:50;14.00;99.90
15535;DHT22;7869;49.264;8.596;2022-11-15T11:43:41;14.00;99.90
15535;DHT22;7869;49.264;8.596;2022-11-15T11:49:12;14.10;99.90
15535;DHT22;7869;49.264;8.596;2022-11-15T11:51:54;14.20;99.90
15535;DHT22;7869;49.264;8.596;2022-11-15T11:54:44;14.20;99.90
15535;DHT22;7869;49.264;8.596;2022-11-15T12:00:04;14.30;99.90
15535;DHT22;7869;49.264;8.596;2022-11-15T12:02:42;14.40;99.90
15535;DHT22;7869;49.264;8.596;2022-11-15T12:05:32;14.40;99.90
15535;DHT22;7869;49.264;8.596;2022-11-15T12:10:37;14.50;99.90
15535;DHT22;7869;49.264;8.596;2022-11-15T12:13:08;14.40;99.90
15535;DHT22;7869;49.264;8.596;2022-11-15T12:15:50;14.40;99.90
15535;DHT22;7869;49.264;8.596;2022-11-15T12:18:18;14.40;99.90
15535;DHT22;7869;49.264;8.596;2022-11-15T12:21:14;14.30;99.90
15535;DHT22;7869;49.264;8.596;2022-11-15T12:23:54;14.30;99.90
15535;DHT22;7869;49.264;8.596;2022-11-15T12:26:26;14.20;99.90
15535;DHT22;7869;49.264;8.596;2022-11-15T12:29:01;14.00;99.90
15535;DHT22;7869;49.264;8.596;2022-11-15T12:34:02;13.90;99.90
15535;DHT22;7869;49.264;8.596;2022-11-15T12:36:40;13.80;99.90
15535;DHT22;7869;49.264;8.596;2022-11-15T12:39:08;13.80;99.90
15535;DHT22;7869;49.264;8.596;2022-11-15T12:41:36;13.80;99.90
15535;DHT22;7869;49.264;8.596;2022-11-15T12:44:03;13.80;99.90
15535;DHT22;7869;49.264;8.596;2022-11-15T13:02:35;14.20;99.90
15535;DHT22;7869;49.264;8.596;2022-11-15T13:17:45;14.30;99.90
15535;DHT22;7869;49.264;8.596;2022-11-15T13:22:48;14.30;99.90
15535;DHT22;7869;49.264;8.596;2022-11-15T13:28:47;14.30;99.90
15535;DHT22;7869;49.264;8.596;2022-11-15T13:33:36;14.30;99.90
15535;DHT22;7869;49.264;8.596;2022-11-15T13:36:18;14.30;99.90
15535;DHT22;7869;49.264;8.596;2022-11-15T13:38:54;14.20;99.90
15535;DHT22;7869;49.264;8.596;2022-11-15T13:41:23;14.20;99.90
15535;DHT22;7869;49.264;8.596;2022-11-15T13:43:50;14.20;99.90
15535;DHT22;7869;49.264;8.596;2022-11-15T13:46:30;14.20;99.90
15535;DHT22;7869;49.264;8.596;2022-11-15T13:48:57;14.30;99.90
15535;DHT22;7869;49.264;8.596;2022-11-15T13:56:44;14.40;99.90
15535;DHT22;7869;49.264;8.596;2022-11-15T13:59:20;14.40;99.90
15535;DHT22;7869;49.264;8.596;2022-11-15T14:01:47;14.40;99.90
15535;DHT22;7869;49.264;8.596;2022-11-15T14:04:17;14.40;99.90
15535;DHT22;7869;49.264;8.596;2022-11-15T14:06:50;14.40;99.90
15535;DHT22;7869;49.264;8.596;2022-11-15T14:11:59;14.30;99.90
15535;DHT22;7869;49.264;8.596;2022-11-15T14:14:27;14.30;99.90
15535;DHT22;7869;49.264;8.596;2022-11-15T14:16:57;14.30;99.90
15535;DHT22;7869;49.264;8.596;2022-11-15T14:27:31;14.20;99.90
15535;DHT22;7869;49.264;8.596;2022-11-15T14:29:57;14.20;99.90
15535;DHT22;7869;49.264;8.596;2022-11-15T14:32:24;14.20;99.90
15535;DHT22;7869;49.264;8.596;2022-11-15T14:34:59;14.10;99.90
15535;DHT22;7869;49.264;8.596;2022-11-15T14:37:33;14.10;99.90
15535;DHT22;7869;49.264;8.596;2022-11-15T14:40:00;14.00;99.90
15535;DHT22;7869;49.264;8.596;2022-11-15T14:42:26;13.90;99.90
15535;DHT22;7869;49.264;8.596;2022-11-15T14:44:52;13.90;99.90
15535;DHT22;7869;49.264;8.596;2022-11-15T14:47:18;13.80;99.90
15535;DHT22;7869;49.264;8.596;2022-11-15T14:49:43;13.80;99.90
15535;DHT22;7869;49.264;8.596;2022-11-15T14:52:30;13.80;99.90
15535;DHT22;7869;49.264;8.596;2022-11-15T14:55:00;13.80;99.90
15535;DHT22;7869;49.264;8.596;2022-11-15T14:57:27;13.80;99.90
15535;DHT22;7869;49.264;8.596;2022-11-15T14:59:53;13.70;99.90
15535;DHT22;7869;49.264;8.596;2022-11-15T15:02:26;13.60;99.90
15535;DHT22;7869;49.264;8.596;2022-11-15T15:04:52;13.50;99.90
15535;DHT22;7869;49.264;8.596;2022-11-15T15:07:19;13.50;99.90
15535;DHT22;7869;49.264;8.596;2022-11-15T15:09:45;13.40;99.90
15535;DHT22;7869;49.264;8.596;2022-11-15T15:12:17;13.40;99.90
15535;DHT22;7869;49.264;8.596;2022-11-15T15:14:44;13.30;99.90
15535;DHT22;7869;49.264;8.596;2022-11-15T15:17:09;13.20;99.90
15535;DHT22;7869;49.264;8.596;2022-11-15T15:19:35;13.20;99.90
15535;DHT22;7869;49.264;8.596;2022-11-15T15:22:01;13.20;99.90
15535;DHT22;7869;49.264;8.596;2022-11-15T15:24:26;13.10;99.90
15535;DHT22;7869;49.264;8.596;2022-11-15T15:26:52;13.20;99.90
15535;DHT22;7869;49.264;8.596;2022-11-15T15:29:17;13.10;99.90
15535;DHT22;7869;49.264;8.596;2022-11-15T15:31:43;13.00;99.90
15535;DHT22;7869;49.264;8.596;2022-11-15T15:34:08;13.00;99.90
15535;DHT22;7869;49.264;8.596;2022-11-15T15:36:34;12.90;99.90
15535;DHT22;7869;49.264;8.596;2022-11-15T15:38:59;12.90;99.90
15535;DHT22;7869;49.264;8.596;2022-11-15T15:41:25;12.80;99.90
15535;DHT22;7869;49.264;8.596;2022-11-15T15:43:50;12.80;99.90
15535;DHT22;7869;49.264;8.596;2022-11-15T15:46:18;12.80;99.90
15535;DHT22;7869;49.264;8.596;2022-11-15T15:48:45;12.70;99.90
15535;DHT22;7869;49.264;8.596;2022-11-15T15:51:11;12.70;99.90
15535;DHT22;7869;49.264;8.596;2022-11-15T15:53:37;12.70;99.90
15535;DHT22;7869;49.264;8.596;2022-11-15T15:56:03;12.70;99.90
15535;DHT22;7869;49.264;8.596;2022-11-15T15:58:29;12.60;99.90
15535;DHT22;7869;49.264;8.596;2022-11-15T16:00:54;12.60;99.90
15535;DHT22;7869;49.264;8.596;2022-11-15T16:03:20;12.60;99.90
15535;DHT22;7869;49.264;8.596;2022-11-15T16:05:46;12.60;99.90
15535;DHT22;7869;49.264;8.596;2022-11-15T16:08:19;12.60;99.90
15535;DHT22;7869;49.264;8.596;2022-11-15T16:10:45;12.60;99.90
15535;DHT22;7869;49.264;8.596;2022-11-15T16:13:11;12.50;99.90
15535;DHT22;7869;49.264;8.596;2022-11-15T16:15:36;12.50;99.90
15535;DHT22;7869;49.264;8.596;2022-11-15T16:18:03;12.50;99.90
15535;DHT22;7869;49.264;8.596;2022-11-15T16:20:38;12.50;99.90
15535;DHT22;7869;49.264;8.596;2022-11-15T16:23:07;12.50;99.90
15535;DHT22;7869;49.264;8.596;2022-11-15T16:25:40;12.50;99.90
15535;DHT22;7869;49.264;8.596;2022-11-15T16:28:21;12.60;99.90
15535;DHT22;7869;49.264;8.596;2022-11-15T16:30:48;12.50;99.90
15535;DHT22;7869;49.264;8.596;2022-11-15T16:33:14;12.60;99.90
15535;DHT22;7869;49.264;8.596;2022-11-15T16:35:40;12.60;99.90
15535;DHT22;7869;49.264;8.596;2022-11-15T16:38:08;12.60;99.90
15535;DHT22;7869;49.264;8.596;2022-11-15T16:40:38;12.60;99.90
15535;DHT22;7869;49.264;8.596;2022-11-15T16:43:03;12.60;99.90
15535;DHT22;7869;49.264;8.596;2022-11-15T16:45:33;12.50;99.90
15535;DHT22;7869;49.264;8.596;2022-11-15T16:47:59;12.60;99.90
15535;DHT22;7869;49.264;8.596;2022-11-15T16:50:27;12.50;99.90
15535;DHT22;7869;49.264;8.596;2022-11-15T16:52:58;12.50;99.90
15535;DHT22;7869;49.264;8.596;2022-11-15T16:55:26;12.50;99.90
15535;DHT22;7869;49.264;8.596;2022-11-15T16:57:53;12.50;99.90
15535;DHT22;7869;49.264;8.596;2022-11-15T17:00:20;12.40;99.90
15535;DHT22;7869;49.264;8.596;2022-11-15T17:02:47;12.40;99.90
15535;DHT22;7869;49.264;8.596;2022-11-15T17:05:14;12.40;99.90
15535;DHT22;7869;49.264;8.596;2022-11-15T17:07:41;12.40;99.90
15535;DHT22;7869;49.264;8.596;2022-11-15T17:10:10;12.40;99.90
15535;DHT22;7869;49.264;8.596;2022-11-15T17:12:36;12.40;99.90
15535;DHT22;7869;49.264;8.596;2022-11-15T17:15:03;12.30;99.90
15535;DHT22;7869;49.264;8.596;2022-11-15T17:17:30;12.30;99.90
15535;DHT22;7869;49.264;8.596;2022-11-15T17:19:56;12.30;99.90
15535;DHT22;7869;49.264;8.596;2022-11-15T17:22:22;12.40;99.90
15535;DHT22;7869;49.264;8.596;2022-11-15T17:24:48;12.40;99.90
15535;DHT22;7869;49.264;8.596;2022-11-15T17:27:13;12.50;99.90
15535;DHT22;7869;49.264;8.596;2022-11-15T17:29:40;12.40;99.90
15535;DHT22;7869;49.264;8.596;2022-11-15T17:32:07;12.40;99.90
15535;DHT22;7869;49.264;8.596;2022-11-15T17:34:33;12.40;99.90
15535;DHT22;7869;49.264;8.596;2022-11-15T17:36:59;12.40;99.90
15535;DHT22;7869;49.264;8.596;2022-11-15T17:39:25;12.40;99.90
15535;DHT22;7869;49.264;8.596;2022-11-15T17:41:51;12.40;99.90
15535;DHT22;7869;49.264;8.596;2022-11-15T17:44:17;12.40;99.90
15535;DHT22;7869;49.264;8.596;2022-11-15T17:46:43;12.40;99.90
15535;DHT22;7869;49.264;8.596;2022-11-15T17:49:09;12.30;99.90
15535;DHT22;7869;49.264;8.596;2022-11-15T17:51:35;12.40;99.90
15535;DHT22;7869;49.264;8.596;2022-11-15T17:54:01;12.30;99.90
15535;DHT22;7869;49.264;8.596;2022-11-15T17:56:27;12.30;99.90
15535;DHT22;7869;49.264;8.596;2022-11-15T17:58:59;12.30;99.90
15535;DHT22;7869;49.264;8.596;2022-11-15T18:01:27;12.30;99.90
15535;DHT22;7869;49.264;8.596;2022-11-15T18:03:54;12.30;99.90
15535;DHT22;7869;49.264;8.596;2022-11-15T18:06:22;12.30;99.90
15535;DHT22;7869;49.264;8.596;2022-11-15T18:08:50;12.30;99.90
15535;DHT22;7869;49.264;8.596;2022-11-15T18:11:20;12.30;99.90
15535;DHT22;7869;49.264;8.596;2022-11-15T18:13:50;12.30;99.90
15535;DHT22;7869;49.264;8.596;2022-11-15T18:16:19;12.30;99.90
15535;DHT22;7869;49.264;8.596;2022-11-15T18:18:46;12.40;99.90
15535;DHT22;7869;49.264;8.596;2022-11-15T18:21:15;12.30;99.90
15535;DHT22;7869;49.264;8.596;2022-11-15T18:23:43;12.30;99.90
15535;DHT22;7869;49.264;8.596;2022-11-15T18:26:12;12.40;99.90
15535;DHT22;7869;49.264;8.596;2022-11-15T18:28:40;12.40;99.90
15535;DHT22;7869;49.264;8.596;2022-11-15T18:31:18;12.40;99.90